Terminal Aerodrome Forecast
Issued by NWS Sterling, VA

Current Version | Previous Version | Graphics & Text | Print | Product List | Glossary On
Versions: 1 2 3 4 5 6 7 8 9 10 11 12 13 14 15 16 17 18 19
000
FTUS41 KLWX 201700 RRA
TAFMRB
TAF
KMRB 201742Z 2018/2118 10006KT P6SM SCT025 BKN050
     FM210300 00000KT P6SM SCT050 BKN090
     FM210900 VRB03KT 3SM BR SCT015 BKN025
     FM211500 15006KT P6SM BKN025 BKN050=

USA.gov is the U.S. government's official web portal to all federal, state and local government web resources and services.